sensor_id;sensor_type;location;lat;lon;timestamp;P1;durP1;ratioP1;P2;durP2;ratioP2
83929;SDS011;73959;52.130;5.584;2024-02-26T00:01:26;7.30;;;5.70;;
83929;SDS011;73959;52.130;5.584;2024-02-26T00:03:52;7.60;;;6.55;;
83929;SDS011;73959;52.130;5.584;2024-02-26T00:06:20;9.27;;;6.43;;
83929;SDS011;73959;52.130;5.584;2024-02-26T00:08:46;10.82;;;6.45;;
83929;SDS011;73959;52.130;5.584;2024-02-26T00:11:12;8.73;;;6.80;;
83929;SDS011;73959;52.130;5.584;2024-02-26T00:13:37;7.95;;;6.68;;
83929;SDS011;73959;52.130;5.584;2024-02-26T00:16:03;8.05;;;6.18;;
83929;SDS011;73959;52.130;5.584;2024-02-26T00:18:31;9.50;;;6.30;;
83929;SDS011;73959;52.130;5.584;2024-02-26T00:20:57;8.45;;;7.38;;
83929;SDS011;73959;52.130;5.584;2024-02-26T00:23:23;8.80;;;7.22;;
83929;SDS011;73959;52.130;5.584;2024-02-26T00:25:49;8.60;;;7.03;;
83929;SDS011;73959;52.130;5.584;2024-02-26T00:28:15;10.07;;;7.18;;
83929;SDS011;73959;52.130;5.584;2024-02-26T00:30:41;10.07;;;7.18;;
83929;SDS011;73959;52.130;5.584;2024-02-26T00:33:07;9.50;;;7.85;;
83929;SDS011;73959;52.130;5.584;2024-02-26T00:35:33;8.52;;;7.38;;
83929;SDS011;73959;52.130;5.584;2024-02-26T00:37:59;8.52;;;6.97;;
83929;SDS011;73959;52.130;5.584;2024-02-26T00:40:27;10.68;;;7.45;;
83929;SDS011;73959;52.130;5.584;2024-02-26T00:42:52;10.93;;;7.63;;
83929;SDS011;73959;52.130;5.584;2024-02-26T00:45:18;8.85;;;7.22;;
83929;SDS011;73959;52.130;5.584;2024-02-26T00:47:44;10.18;;;7.32;;
83929;SDS011;73959;52.130;5.584;2024-02-26T00:50:12;10.50;;;7.57;;
83929;SDS011;73959;52.130;5.584;2024-02-26T00:52:38;9.18;;;8.02;;
83929;SDS011;73959;52.130;5.584;2024-02-26T00:55:04;10.90;;;8.10;;
83929;SDS011;73959;52.130;5.584;2024-02-26T00:57:31;10.40;;;7.90;;
83929;SDS011;73959;52.130;5.584;2024-02-26T00:59:57;14.07;;;8.60;;
83929;SDS011;73959;52.130;5.584;2024-02-26T01:02:24;10.07;;;8.10;;
83929;SDS011;73959;52.130;5.584;2024-02-26T01:04:49;11.40;;;8.95;;
83929;SDS011;73959;52.130;5.584;2024-02-26T01:07:15;10.98;;;8.75;;
83929;SDS011;73959;52.130;5.584;2024-02-26T01:09:42;9.70;;;7.97;;
83929;SDS011;73959;52.130;5.584;2024-02-26T01:12:08;9.45;;;8.27;;
83929;SDS011;73959;52.130;5.584;2024-02-26T01:14:34;10.07;;;7.68;;
83929;SDS011;73959;52.130;5.584;2024-02-26T01:17:00;11.18;;;9.13;;
83929;SDS011;73959;52.130;5.584;2024-02-26T01:19:25;11.50;;;9.02;;
83929;SDS011;73959;52.130;5.584;2024-02-26T01:21:51;16.10;;;8.32;;
83929;SDS011;73959;52.130;5.584;2024-02-26T01:24:17;10.57;;;8.75;;
83929;SDS011;73959;52.130;5.584;2024-02-26T01:26:43;12.93;;;8.80;;
83929;SDS011;73959;52.130;5.584;2024-02-26T01:29:09;11.75;;;7.90;;
83929;SDS011;73959;52.130;5.584;2024-02-26T01:31:35;11.35;;;8.77;;
83929;SDS011;73959;52.130;5.584;2024-02-26T01:34:01;12.40;;;8.90;;
83929;SDS011;73959;52.130;5.584;2024-02-26T01:36:27;11.13;;;8.65;;
83929;SDS011;73959;52.130;5.584;2024-02-26T01:38:53;10.43;;;8.77;;
83929;SDS011;73959;52.130;5.584;2024-02-26T01:41:19;10.65;;;8.55;;
83929;SDS011;73959;52.130;5.584;2024-02-26T01:43:45;10.50;;;8.45;;
83929;SDS011;73959;52.130;5.584;2024-02-26T01:46:11;10.13;;;8.05;;
83929;SDS011;73959;52.130;5.584;2024-02-26T01:48:42;13.35;;;8.88;;
83929;SDS011;73959;52.130;5.584;2024-02-26T01:51:08;12.38;;;9.05;;
83929;SDS011;73959;52.130;5.584;2024-02-26T01:53:35;13.13;;;8.25;;
83929;SDS011;73959;52.130;5.584;2024-02-26T01:56:01;11.05;;;8.60;;
83929;SDS011;73959;52.130;5.584;2024-02-26T01:58:27;11.18;;;8.68;;
83929;SDS011;73959;52.130;5.584;2024-02-26T02:00:55;12.85;;;9.30;;
83929;SDS011;73959;52.130;5.584;2024-02-26T02:03:21;11.57;;;8.55;;
83929;SDS011;73959;52.130;5.584;2024-02-26T02:05:47;14.85;;;9.68;;
83929;SDS011;73959;52.130;5.584;2024-02-26T02:08:13;12.00;;;9.40;;
83929;SDS011;73959;52.130;5.584;2024-02-26T02:10:40;13.93;;;9.50;;
83929;SDS011;73959;52.130;5.584;2024-02-26T02:13:07;12.48;;;9.15;;
83929;SDS011;73959;52.130;5.584;2024-02-26T02:15:33;11.57;;;8.52;;
83929;SDS011;73959;52.130;5.584;2024-02-26T02:17:59;12.40;;;9.60;;
83929;SDS011;73959;52.130;5.584;2024-02-26T02:20:26;13.50;;;9.10;;
83929;SDS011;73959;52.130;5.584;2024-02-26T02:22:57;12.70;;;9.35;;
83929;SDS011;73959;52.130;5.584;2024-02-26T02:25:23;12.15;;;9.00;;
83929;SDS011;73959;52.130;5.584;2024-02-26T02:27:49;12.23;;;9.05;;
83929;SDS011;73959;52.130;5.584;2024-02-26T02:30:16;13.57;;;9.57;;
83929;SDS011;73959;52.130;5.584;2024-02-26T02:32:42;12.30;;;8.48;;
83929;SDS011;73959;52.130;5.584;2024-02-26T02:35:08;11.63;;;8.88;;
83929;SDS011;73959;52.130;5.584;2024-02-26T02:37:34;11.38;;;8.68;;
83929;SDS011;73959;52.130;5.584;2024-02-26T02:40:00;11.95;;;8.73;;
83929;SDS011;73959;52.130;5.584;2024-02-26T02:42:26;11.55;;;8.82;;
83929;SDS011;73959;52.130;5.584;2024-02-26T02:44:52;12.15;;;8.65;;
83929;SDS011;73959;52.130;5.584;2024-02-26T02:47:18;12.73;;;9.07;;
83929;SDS011;73959;52.130;5.584;2024-02-26T02:49:44;12.77;;;9.15;;
83929;SDS011;73959;52.130;5.584;2024-02-26T02:52:10;12.63;;;8.60;;
83929;SDS011;73959;52.130;5.584;2024-02-26T02:54:36;10.82;;;8.55;;
83929;SDS011;73959;52.130;5.584;2024-02-26T02:57:05;10.85;;;8.45;;
83929;SDS011;73959;52.130;5.584;2024-02-26T02:59:31;12.43;;;8.80;;
83929;SDS011;73959;52.130;5.584;2024-02-26T03:01:57;12.57;;;8.73;;
83929;SDS011;73959;52.130;5.584;2024-02-26T03:04:23;12.15;;;8.90;;
83929;SDS011;73959;52.130;5.584;2024-02-26T03:06:49;12.02;;;8.13;;
83929;SDS011;73959;52.130;5.584;2024-02-26T03:09:15;13.80;;;9.63;;
83929;SDS011;73959;52.130;5.584;2024-02-26T03:11:41;12.95;;;8.45;;
83929;SDS011;73959;52.130;5.584;2024-02-26T03:14:07;11.07;;;8.45;;
83929;SDS011;73959;52.130;5.584;2024-02-26T03:16:34;11.13;;;8.55;;
83929;SDS011;73959;52.130;5.584;2024-02-26T03:19:00;12.27;;;9.40;;
83929;SDS011;73959;52.130;5.584;2024-02-26T03:21:26;12.65;;;8.93;;
83929;SDS011;73959;52.130;5.584;2024-02-26T03:23:52;12.82;;;8.88;;
83929;SDS011;73959;52.130;5.584;2024-02-26T03:26:19;14.05;;;9.63;;
83929;SDS011;73959;52.130;5.584;2024-02-26T03:28:45;14.27;;;9.95;;
83929;SDS011;73959;52.130;5.584;2024-02-26T03:31:11;13.40;;;10.05;;
83929;SDS011;73959;52.130;5.584;2024-02-26T03:33:37;13.30;;;9.40;;
83929;SDS011;73959;52.130;5.584;2024-02-26T03:36:03;13.48;;;9.82;;
83929;SDS011;73959;52.130;5.584;2024-02-26T03:38:29;15.38;;;10.27;;
83929;SDS011;73959;52.130;5.584;2024-02-26T03:40:55;14.35;;;9.30;;
83929;SDS011;73959;52.130;5.584;2024-02-26T03:43:21;13.43;;;10.13;;
83929;SDS011;73959;52.130;5.584;2024-02-26T03:45:47;13.95;;;10.25;;
83929;SDS011;73959;52.130;5.584;2024-02-26T03:48:13;15.68;;;10.27;;
83929;SDS011;73959;52.130;5.584;2024-02-26T03:50:39;16.75;;;10.52;;
83929;SDS011;73959;52.130;5.584;2024-02-26T03:53:05;14.75;;;10.40;;
83929;SDS011;73959;52.130;5.584;2024-02-26T03:55:33;14.15;;;9.68;;
83929;SDS011;73959;52.130;5.584;2024-02-26T03:57:59;14.73;;;10.13;;
83929;SDS011;73959;52.130;5.584;2024-02-26T04:00:25;14.93;;;10.70;;
83929;SDS011;73959;52.130;5.584;2024-02-26T04:02:54;16.98;;;11.63;;
83929;SDS011;73959;52.130;5.584;2024-02-26T04:05:20;14.95;;;10.68;;
83929;SDS011;73959;52.130;5.584;2024-02-26T04:07:46;15.15;;;10.80;;
83929;SDS011;73959;52.130;5.584;2024-02-26T04:10:12;13.75;;;9.93;;
83929;SDS011;73959;52.130;5.584;2024-02-26T04:12:39;14.32;;;10.23;;
83929;SDS011;73959;52.130;5.584;2024-02-26T04:15:06;14.80;;;10.25;;
83929;SDS011;73959;52.130;5.584;2024-02-26T04:17:32;14.38;;;10.00;;
83929;SDS011;73959;52.130;5.584;2024-02-26T04:19:58;14.73;;;9.57;;
83929;SDS011;73959;52.130;5.584;2024-02-26T04:22:24;13.65;;;9.95;;
83929;SDS011;73959;52.130;5.584;2024-02-26T04:24:50;15.20;;;10.15;;
83929;SDS011;73959;52.130;5.584;2024-02-26T04:27:16;14.23;;;9.93;;
83929;SDS011;73959;52.130;5.584;2024-02-26T04:29:42;14.73;;;10.05;;
83929;SDS011;73959;52.130;5.584;2024-02-26T04:32:08;13.75;;;9.93;;
83929;SDS011;73959;52.130;5.584;2024-02-26T04:34:34;14.27;;;10.00;;
83929;SDS011;73959;52.130;5.584;2024-02-26T04:37:00;15.95;;;10.40;;
83929;SDS011;73959;52.130;5.584;2024-02-26T04:39:26;13.75;;;10.07;;
83929;SDS011;73959;52.130;5.584;2024-02-26T04:41:52;14.50;;;10.57;;
83929;SDS011;73959;52.130;5.584;2024-02-26T04:44:17;15.88;;;10.98;;
83929;SDS011;73959;52.130;5.584;2024-02-26T04:46:43;14.07;;;9.95;;
83929;SDS011;73959;52.130;5.584;2024-02-26T04:49:09;14.65;;;10.07;;
83929;SDS011;73959;52.130;5.584;2024-02-26T04:51:35;13.73;;;10.55;;
83929;SDS011;73959;52.130;5.584;2024-02-26T04:54:02;13.90;;;9.98;;
83929;SDS011;73959;52.130;5.584;2024-02-26T04:56:28;13.90;;;9.85;;
83929;SDS011;73959;52.130;5.584;2024-02-26T04:58:54;13.98;;;10.35;;
83929;SDS011;73959;52.130;5.584;2024-02-26T05:01:20;15.15;;;10.05;;
83929;SDS011;73959;52.130;5.584;2024-02-26T05:03:46;16.25;;;10.18;;
83929;SDS011;73959;52.130;5.584;2024-02-26T05:06:12;14.35;;;10.20;;
83929;SDS011;73959;52.130;5.584;2024-02-26T05:08:38;16.50;;;10.75;;
83929;SDS011;73959;52.130;5.584;2024-02-26T05:11:04;16.58;;;10.50;;
83929;SDS011;73959;52.130;5.584;2024-02-26T05:13:33;14.88;;;10.18;;
83929;SDS011;73959;52.130;5.584;2024-02-26T05:15:59;14.90;;;10.80;;
83929;SDS011;73959;52.130;5.584;2024-02-26T05:18:25;13.45;;;9.13;;
83929;SDS011;73959;52.130;5.584;2024-02-26T05:20:51;14.05;;;10.10;;
83929;SDS011;73959;52.130;5.584;2024-02-26T05:23:17;17.20;;;10.25;;
83929;SDS011;73959;52.130;5.584;2024-02-26T05:25:43;15.80;;;10.38;;
83929;SDS011;73959;52.130;5.584;2024-02-26T05:28:12;14.45;;;10.48;;
83929;SDS011;73959;52.130;5.584;2024-02-26T05:30:38;15.63;;;11.07;;
83929;SDS011;73959;52.130;5.584;2024-02-26T05:33:05;16.30;;;11.95;;
83929;SDS011;73959;52.130;5.584;2024-02-26T05:35:31;14.77;;;10.30;;
83929;SDS011;73959;52.130;5.584;2024-02-26T05:37:57;14.45;;;10.88;;
83929;SDS011;73959;52.130;5.584;2024-02-26T05:40:22;15.80;;;10.57;;
83929;SDS011;73959;52.130;5.584;2024-02-26T05:42:48;15.82;;;11.15;;
83929;SDS011;73959;52.130;5.584;2024-02-26T05:45:14;17.98;;;11.15;;
83929;SDS011;73959;52.130;5.584;2024-02-26T05:47:40;14.70;;;10.75;;
83929;SDS011;73959;52.130;5.584;2024-02-26T05:50:09;16.42;;;10.95;;
83929;SDS011;73959;52.130;5.584;2024-02-26T05:52:40;15.82;;;11.73;;
83929;SDS011;73959;52.130;5.584;2024-02-26T05:55:06;17.60;;;11.57;;
83929;SDS011;73959;52.130;5.584;2024-02-26T05:57:33;19.60;;;11.55;;
83929;SDS011;73959;52.130;5.584;2024-02-26T05:59:59;17.70;;;11.95;;
83929;SDS011;73959;52.130;5.584;2024-02-26T06:02:29;18.05;;;12.57;;
83929;SDS011;73959;52.130;5.584;2024-02-26T06:04:55;18.05;;;12.27;;
83929;SDS011;73959;52.130;5.584;2024-02-26T06:07:21;18.92;;;12.10;;
83929;SDS011;73959;52.130;5.584;2024-02-26T06:09:47;16.83;;;12.00;;
83929;SDS011;73959;52.130;5.584;2024-02-26T06:12:13;19.42;;;12.52;;
83929;SDS011;73959;52.130;5.584;2024-02-26T06:14:39;19.30;;;13.00;;
83929;SDS011;73959;52.130;5.584;2024-02-26T06:17:05;18.88;;;12.60;;
83929;SDS011;73959;52.130;5.584;2024-02-26T06:19:32;21.92;;;13.43;;
83929;SDS011;73959;52.130;5.584;2024-02-26T06:21:58;19.27;;;12.18;;
83929;SDS011;73959;52.130;5.584;2024-02-26T06:24:24;18.05;;;11.60;;
83929;SDS011;73959;52.130;5.584;2024-02-26T06:26:50;20.05;;;13.27;;
83929;SDS011;73959;52.130;5.584;2024-02-26T06:29:16;20.73;;;13.23;;
83929;SDS011;73959;52.130;5.584;2024-02-26T06:31:42;21.60;;;12.73;;
83929;SDS011;73959;52.130;5.584;2024-02-26T06:34:08;25.52;;;13.73;;
83929;SDS011;73959;52.130;5.584;2024-02-26T06:36:34;20.67;;;13.18;;
83929;SDS011;73959;52.130;5.584;2024-02-26T06:39:00;23.27;;;14.35;;
83929;SDS011;73959;52.130;5.584;2024-02-26T06:41:26;23.05;;;13.88;;
83929;SDS011;73959;52.130;5.584;2024-02-26T06:43:54;22.45;;;13.52;;
83929;SDS011;73959;52.130;5.584;2024-02-26T06:46:21;23.25;;;14.07;;
83929;SDS011;73959;52.130;5.584;2024-02-26T06:48:47;21.05;;;14.25;;
83929;SDS011;73959;52.130;5.584;2024-02-26T06:51:14;25.73;;;14.88;;
83929;SDS011;73959;52.130;5.584;2024-02-26T06:53:40;24.30;;;14.60;;
83929;SDS011;73959;52.130;5.584;2024-02-26T06:56:06;25.20;;;14.75;;
83929;SDS011;73959;52.130;5.584;2024-02-26T06:58:32;23.10;;;13.85;;
83929;SDS011;73959;52.130;5.584;2024-02-26T07:00:58;22.38;;;14.07;;
83929;SDS011;73959;52.130;5.584;2024-02-26T07:03:24;23.58;;;14.07;;
83929;SDS011;73959;52.130;5.584;2024-02-26T07:05:50;25.33;;;14.85;;
83929;SDS011;73959;52.130;5.584;2024-02-26T07:08:17;26.45;;;14.77;;
83929;SDS011;73959;52.130;5.584;2024-02-26T07:10:43;29.90;;;16.17;;
83929;SDS011;73959;52.130;5.584;2024-02-26T07:13:09;26.20;;;15.32;;
83929;SDS011;73959;52.130;5.584;2024-02-26T07:15:35;27.27;;;15.77;;
83929;SDS011;73959;52.130;5.584;2024-02-26T07:18:00;29.95;;;16.77;;
83929;SDS011;73959;52.130;5.584;2024-02-26T07:20:29;29.05;;;16.42;;
83929;SDS011;73959;52.130;5.584;2024-02-26T07:22:56;27.73;;;16.13;;
83929;SDS011;73959;52.130;5.584;2024-02-26T07:25:22;30.42;;;17.63;;
83929;SDS011;73959;52.130;5.584;2024-02-26T07:27:49;28.80;;;16.45;;
83929;SDS011;73959;52.130;5.584;2024-02-26T07:30:15;36.22;;;18.67;;
83929;SDS011;73959;52.130;5.584;2024-02-26T07:32:41;34.05;;;20.10;;
83929;SDS011;73959;52.130;5.584;2024-02-26T07:35:08;39.85;;;22.55;;
83929;SDS011;73959;52.130;5.584;2024-02-26T07:37:33;50.13;;;28.85;;
83929;SDS011;73959;52.130;5.584;2024-02-26T07:40:00;36.67;;;22.10;;
83929;SDS011;73959;52.130;5.584;2024-02-26T07:42:26;37.97;;;21.98;;
83929;SDS011;73959;52.130;5.584;2024-02-26T07:44:52;39.05;;;22.23;;
83929;SDS011;73959;52.130;5.584;2024-02-26T07:47:18;37.03;;;22.75;;
83929;SDS011;73959;52.130;5.584;2024-02-26T07:49:44;35.70;;;20.90;;
83929;SDS011;73959;52.130;5.584;2024-02-26T07:52:10;35.75;;;20.45;;
83929;SDS011;73959;52.130;5.584;2024-02-26T07:54:36;43.50;;;24.40;;
83929;SDS011;73959;52.130;5.584;2024-02-26T07:57:02;34.92;;;20.98;;
83929;SDS011;73959;52.130;5.584;2024-02-26T07:59:30;40.63;;;25.00;;
83929;SDS011;73959;52.130;5.584;2024-02-26T08:01:56;38.80;;;21.75;;
83929;SDS011;73959;52.130;5.584;2024-02-26T08:04:22;37.05;;;21.38;;
83929;SDS011;73959;52.130;5.584;2024-02-26T08:06:48;38.97;;;22.48;;
83929;SDS011;73959;52.130;5.584;2024-02-26T08:09:14;37.20;;;21.15;;
83929;SDS011;73959;52.130;5.584;2024-02-26T08:11:40;37.65;;;20.63;;
83929;SDS011;73959;52.130;5.584;2024-02-26T08:14:06;33.03;;;20.02;;
83929;SDS011;73959;52.130;5.584;2024-02-26T08:16:32;32.85;;;19.40;;
83929;SDS011;73959;52.130;5.584;2024-02-26T08:18:58;35.95;;;22.65;;
83929;SDS011;73959;52.130;5.584;2024-02-26T08:21:24;33.67;;;20.42;;
83929;SDS011;73959;52.130;5.584;2024-02-26T08:23:50;30.73;;;18.30;;
83929;SDS011;73959;52.130;5.584;2024-02-26T08:26:16;31.70;;;18.75;;
83929;SDS011;73959;52.130;5.584;2024-02-26T08:28:42;30.73;;;18.35;;
83929;SDS011;73959;52.130;5.584;2024-02-26T08:31:09;29.23;;;18.05;;
83929;SDS011;73959;52.130;5.584;2024-02-26T08:33:35;32.67;;;19.70;;
83929;SDS011;73959;52.130;5.584;2024-02-26T08:36:05;27.25;;;17.13;;
83929;SDS011;73959;52.130;5.584;2024-02-26T08:38:31;28.20;;;17.45;;
83929;SDS011;73959;52.130;5.584;2024-02-26T08:40:59;26.10;;;16.85;;
83929;SDS011;73959;52.130;5.584;2024-02-26T08:43:25;27.10;;;16.52;;
83929;SDS011;73959;52.130;5.584;2024-02-26T08:45:51;21.83;;;14.02;;
83929;SDS011;73959;52.130;5.584;2024-02-26T08:48:17;22.15;;;14.10;;
83929;SDS011;73959;52.130;5.584;2024-02-26T08:50:43;21.27;;;14.75;;
83929;SDS011;73959;52.130;5.584;2024-02-26T08:53:09;24.23;;;15.05;;
83929;SDS011;73959;52.130;5.584;2024-02-26T08:55:35;20.60;;;14.18;;
83929;SDS011;73959;52.130;5.584;2024-02-26T08:58:01;22.02;;;13.65;;
83929;SDS011;73959;52.130;5.584;2024-02-26T09:00:27;20.88;;;12.35;;
83929;SDS011;73959;52.130;5.584;2024-02-26T09:02:52;19.42;;;13.13;;
83929;SDS011;73959;52.130;5.584;2024-02-26T09:05:18;20.55;;;12.70;;
83929;SDS011;73959;52.130;5.584;2024-02-26T09:07:44;19.75;;;12.68;;
83929;SDS011;73959;52.130;5.584;2024-02-26T09:10:11;18.33;;;12.27;;
83929;SDS011;73959;52.130;5.584;2024-02-26T09:12:37;17.73;;;11.30;;
83929;SDS011;73959;52.130;5.584;2024-02-26T09:15:05;16.65;;;11.07;;
83929;SDS011;73959;52.130;5.584;2024-02-26T09:17:31;17.13;;;11.32;;
83929;SDS011;73959;52.130;5.584;2024-02-26T09:19:57;17.55;;;11.40;;
83929;SDS011;73959;52.130;5.584;2024-02-26T09:22:23;17.70;;;11.45;;
83929;SDS011;73959;52.130;5.584;2024-02-26T09:24:49;16.35;;;10.80;;
83929;SDS011;73959;52.130;5.584;2024-02-26T09:27:17;16.83;;;11.10;;
83929;SDS011;73959;52.130;5.584;2024-02-26T09:29:43;16.27;;;10.63;;
83929;SDS011;73959;52.130;5.584;2024-02-26T09:32:09;16.27;;;10.07;;
83929;SDS011;73959;52.130;5.584;2024-02-26T09:34:35;14.50;;;10.32;;
83929;SDS011;73959;52.130;5.584;2024-02-26T09:37:01;16.63;;;10.98;;
83929;SDS011;73959;52.130;5.584;2024-02-26T09:39:27;16.00;;;10.45;;
83929;SDS011;73959;52.130;5.584;2024-02-26T09:41:53;16.35;;;10.23;;
83929;SDS011;73959;52.130;5.584;2024-02-26T09:44:19;14.93;;;10.15;;
83929;SDS011;73959;52.130;5.584;2024-02-26T09:46:48;15.02;;;9.73;;
83929;SDS011;73959;52.130;5.584;2024-02-26T09:49:15;14.77;;;9.38;;
83929;SDS011;73959;52.130;5.584;2024-02-26T09:51:41;16.10;;;10.50;;
83929;SDS011;73959;52.130;5.584;2024-02-26T09:54:10;17.63;;;11.38;;
83929;SDS011;73959;52.130;5.584;2024-02-26T09:56:39;16.23;;;9.90;;
83929;SDS011;73959;52.130;5.584;2024-02-26T09:59:10;11.48;;;8.20;;
83929;SDS011;73959;52.130;5.584;2024-02-26T10:01:37;14.75;;;10.23;;
83929;SDS011;73959;52.130;5.584;2024-02-26T10:04:04;13.77;;;9.88;;
83929;SDS011;73959;52.130;5.584;2024-02-26T10:06:30;14.10;;;9.00;;
83929;SDS011;73959;52.130;5.584;2024-02-26T10:08:56;14.55;;;9.27;;
83929;SDS011;73959;52.130;5.584;2024-02-26T10:11:23;16.08;;;9.75;;
83929;SDS011;73959;52.130;5.584;2024-02-26T10:13:49;15.93;;;10.00;;
83929;SDS011;73959;52.130;5.584;2024-02-26T10:16:16;13.13;;;9.52;;
83929;SDS011;73959;52.130;5.584;2024-02-26T10:18:48;16.58;;;10.50;;
83929;SDS011;73959;52.130;5.584;2024-02-26T10:21:18;15.15;;;11.18;;
83929;SDS011;73959;52.130;5.584;2024-02-26T10:23:44;13.00;;;9.85;;
83929;SDS011;73959;52.130;5.584;2024-02-26T10:26:11;16.30;;;9.85;;
83929;SDS011;73959;52.130;5.584;2024-02-26T10:28:38;16.15;;;11.10;;
83929;SDS011;73959;52.130;5.584;2024-02-26T10:31:04;16.50;;;10.90;;
83929;SDS011;73959;52.130;5.584;2024-02-26T10:33:33;15.15;;;9.50;;
83929;SDS011;73959;52.130;5.584;2024-02-26T10:36:01;21.00;;;12.93;;
83929;SDS011;73959;52.130;5.584;2024-02-26T10:38:27;18.73;;;11.60;;
83929;SDS011;73959;52.130;5.584;2024-02-26T10:40:53;13.63;;;9.50;;
83929;SDS011;73959;52.130;5.584;2024-02-26T10:43:19;17.25;;;10.05;;
83929;SDS011;73959;52.130;5.584;2024-02-26T10:45:45;18.48;;;10.98;;
83929;SDS011;73959;52.130;5.584;2024-02-26T10:48:13;14.18;;;9.32;;
83929;SDS011;73959;52.130;5.584;2024-02-26T10:50:39;19.95;;;12.65;;
83929;SDS011;73959;52.130;5.584;2024-02-26T10:53:13;14.82;;;10.20;;
83929;SDS011;73959;52.130;5.584;2024-02-26T10:55:41;18.15;;;11.90;;
83929;SDS011;73959;52.130;5.584;2024-02-26T10:58:07;12.23;;;8.93;;
83929;SDS011;73959;52.130;5.584;2024-02-26T11:00:38;18.70;;;13.40;;
83929;SDS011;73959;52.130;5.584;2024-02-26T11:03:04;19.55;;;12.82;;
83929;SDS011;73959;52.130;5.584;2024-02-26T11:05:30;15.18;;;9.88;;
83929;SDS011;73959;52.130;5.584;2024-02-26T11:07:58;17.73;;;10.95;;
83929;SDS011;73959;52.130;5.584;2024-02-26T11:10:25;10.65;;;8.02;;
83929;SDS011;73959;52.130;5.584;2024-02-26T11:12:51;20.15;;;12.85;;
83929;SDS011;73959;52.130;5.584;2024-02-26T11:15:18;14.60;;;9.63;;
83929;SDS011;73959;52.130;5.584;2024-02-26T11:17:45;11.48;;;7.82;;
83929;SDS011;73959;52.130;5.584;2024-02-26T11:20:11;14.70;;;9.63;;
83929;SDS011;73959;52.130;5.584;2024-02-26T11:22:38;14.13;;;9.27;;
83929;SDS011;73959;52.130;5.584;2024-02-26T11:25:04;11.20;;;8.18;;
83929;SDS011;73959;52.130;5.584;2024-02-26T11:27:32;15.98;;;9.30;;
83929;SDS011;73959;52.130;5.584;2024-02-26T11:30:00;12.93;;;8.10;;
83929;SDS011;73959;52.130;5.584;2024-02-26T11:32:27;18.92;;;11.30;;
83929;SDS011;73959;52.130;5.584;2024-02-26T11:34:56;16.98;;;9.85;;
83929;SDS011;73959;52.130;5.584;2024-02-26T11:37:23;12.82;;;8.70;;
83929;SDS011;73959;52.130;5.584;2024-02-26T11:39:50;13.65;;;8.50;;
83929;SDS011;73959;52.130;5.584;2024-02-26T11:42:17;13.70;;;9.07;;
83929;SDS011;73959;52.130;5.584;2024-02-26T11:44:43;13.32;;;9.07;;
83929;SDS011;73959;52.130;5.584;2024-02-26T11:47:13;17.73;;;11.65;;
83929;SDS011;73959;52.130;5.584;2024-02-26T11:49:39;13.30;;;8.23;;
83929;SDS011;73959;52.130;5.584;2024-02-26T11:52:06;16.02;;;11.25;;
83929;SDS011;73959;52.130;5.584;2024-02-26T11:57:20;16.80;;;10.73;;
83929;SDS011;73959;52.130;5.584;2024-02-26T11:59:46;16.40;;;10.52;;
83929;SDS011;73959;52.130;5.584;2024-02-26T12:02:37;13.32;;;8.18;;
83929;SDS011;73959;52.130;5.584;2024-02-26T12:04:59;16.55;;;10.80;;
83929;SDS011;73959;52.130;5.584;2024-02-26T12:07:25;13.73;;;8.68;;
83929;SDS011;73959;52.130;5.584;2024-02-26T12:09:51;12.50;;;8.45;;
83929;SDS011;73959;52.130;5.584;2024-02-26T12:12:18;14.02;;;9.43;;
83929;SDS011;73959;52.130;5.584;2024-02-26T12:14:51;12.63;;;8.68;;
83929;SDS011;73959;52.130;5.584;2024-02-26T12:17:21;18.67;;;12.48;;
83929;SDS011;73959;52.130;5.584;2024-02-26T12:19:47;16.42;;;10.43;;
83929;SDS011;73959;52.130;5.584;2024-02-26T12:22:13;13.10;;;9.02;;
83929;SDS011;73959;52.130;5.584;2024-02-26T12:24:40;17.85;;;12.93;;
83929;SDS011;73959;52.130;5.584;2024-02-26T12:27:06;15.30;;;9.57;;
83929;SDS011;73959;52.130;5.584;2024-02-26T12:29:32;14.13;;;10.23;;
83929;SDS011;73959;52.130;5.584;2024-02-26T12:31:58;24.40;;;15.88;;
83929;SDS011;73959;52.130;5.584;2024-02-26T12:34:24;15.68;;;9.07;;
83929;SDS011;73959;52.130;5.584;2024-02-26T12:36:51;21.95;;;13.52;;
83929;SDS011;73959;52.130;5.584;2024-02-26T12:39:18;20.73;;;12.93;;
83929;SDS011;73959;52.130;5.584;2024-02-26T12:41:45;19.95;;;11.90;;
83929;SDS011;73959;52.130;5.584;2024-02-26T12:44:15;16.33;;;10.40;;
83929;SDS011;73959;52.130;5.584;2024-02-26T12:46:41;18.60;;;13.50;;
83929;SDS011;73959;52.130;5.584;2024-02-26T12:49:07;25.67;;;19.15;;
83929;SDS011;73959;52.130;5.584;2024-02-26T12:51:33;20.58;;;14.48;;
83929;SDS011;73959;52.130;5.584;2024-02-26T12:53:59;22.05;;;15.57;;
83929;SDS011;73959;52.130;5.584;2024-02-26T12:56:26;14.55;;;9.80;;
83929;SDS011;73959;52.130;5.584;2024-02-26T12:58:53;17.20;;;12.18;;
83929;SDS011;73959;52.130;5.584;2024-02-26T13:01:22;28.67;;;18.45;;
83929;SDS011;73959;52.130;5.584;2024-02-26T13:03:48;16.77;;;11.80;;
83929;SDS011;73959;52.130;5.584;2024-02-26T13:06:15;13.57;;;9.18;;
83929;SDS011;73959;52.130;5.584;2024-02-26T13:08:41;17.08;;;10.70;;
83929;SDS011;73959;52.130;5.584;2024-02-26T13:11:07;15.02;;;10.55;;
83929;SDS011;73959;52.130;5.584;2024-02-26T13:13:33;15.80;;;9.98;;
83929;SDS011;73959;52.130;5.584;2024-02-26T13:16:01;15.38;;;11.20;;
83929;SDS011;73959;52.130;5.584;2024-02-26T13:18:27;13.32;;;9.60;;
83929;SDS011;73959;52.130;5.584;2024-02-26T13:21:06;11.95;;;8.05;;
83929;SDS011;73959;52.130;5.584;2024-02-26T13:23:33;13.60;;;9.70;;
83929;SDS011;73959;52.130;5.584;2024-02-26T13:25:59;14.88;;;9.82;;
83929;SDS011;73959;52.130;5.584;2024-02-26T13:28:25;13.43;;;8.32;;
83929;SDS011;73959;52.130;5.584;2024-02-26T13:30:53;17.35;;;13.25;;
83929;SDS011;73959;52.130;5.584;2024-02-26T13:33:21;15.85;;;11.52;;
83929;SDS011;73959;52.130;5.584;2024-02-26T13:35:47;12.90;;;8.20;;
83929;SDS011;73959;52.130;5.584;2024-02-26T13:38:13;11.45;;;7.88;;
83929;SDS011;73959;52.130;5.584;2024-02-26T13:40:40;10.93;;;7.95;;
83929;SDS011;73959;52.130;5.584;2024-02-26T13:43:05;11.77;;;9.15;;
83929;SDS011;73959;52.130;5.584;2024-02-26T13:45:35;12.15;;;9.20;;
83929;SDS011;73959;52.130;5.584;2024-02-26T13:48:02;10.48;;;7.72;;
83929;SDS011;73959;52.130;5.584;2024-02-26T13:50:28;11.98;;;8.55;;
83929;SDS011;73959;52.130;5.584;2024-02-26T13:52:54;12.30;;;8.45;;
83929;SDS011;73959;52.130;5.584;2024-02-26T13:55:21;13.80;;;10.88;;
83929;SDS011;73959;52.130;5.584;2024-02-26T13:57:49;11.95;;;8.13;;
83929;SDS011;73959;52.130;5.584;2024-02-26T14:00:17;10.93;;;7.88;;
83929;SDS011;73959;52.130;5.584;2024-02-26T14:02:43;9.98;;;7.70;;
83929;SDS011;73959;52.130;5.584;2024-02-26T14:05:09;11.23;;;7.38;;
83929;SDS011;73959;52.130;5.584;2024-02-26T14:07:35;12.40;;;8.20;;
83929;SDS011;73959;52.130;5.584;2024-02-26T14:10:01;11.45;;;7.45;;
83929;SDS011;73959;52.130;5.584;2024-02-26T14:12:27;10.55;;;7.78;;
83929;SDS011;73959;52.130;5.584;2024-02-26T14:14:53;9.98;;;8.18;;
83929;SDS011;73959;52.130;5.584;2024-02-26T14:17:20;8.90;;;6.85;;
83929;SDS011;73959;52.130;5.584;2024-02-26T14:19:47;10.43;;;7.15;;
83929;SDS011;73959;52.130;5.584;2024-02-26T14:22:14;10.32;;;6.82;;
83929;SDS011;73959;52.130;5.584;2024-02-26T14:24:44;14.35;;;9.57;;
83929;SDS011;73959;52.130;5.584;2024-02-26T14:27:10;12.45;;;8.70;;